createdAt,value
2018-03-30T00:00:36.173Z,57.40
2018-03-30T00:03:03.697Z,51.73
2018-03-30T00:05:31.189Z,59.93
2018-03-30T00:07:58.727Z,59.20
2018-03-30T00:10:26.203Z,59.57
2018-03-30T00:12:53.710Z,58.17
2018-03-30T00:15:21.219Z,55.97
2018-03-30T00:17:48.715Z,52.33
2018-03-30T00:20:16.282Z,50.97
2018-03-30T00:22:43.779Z,49.27
2018-03-30T00:25:11.247Z,53.50
2018-03-30T00:27:38.737Z,53.00
2018-03-30T00:30:06.997Z,52.60
2018-03-30T00:32:34.503Z,50.40
2018-03-30T00:35:01.978Z,49.90
2018-03-30T00:37:29.471Z,49.80
2018-03-30T00:39:56.997Z,50.60
2018-03-30T00:42:24.488Z,52.60
2018-03-30T00:44:52.006Z,50.63
2018-03-30T00:47:19.509Z,50.67
2018-03-30T00:49:47.029Z,50.90
2018-03-30T00:52:14.987Z,50.10
2018-03-30T00:54:42.471Z,52.03
2018-03-30T00:57:09.951Z,51.93
2018-03-30T00:59:37.466Z,56.60
2018-03-30T01:02:04.976Z,47.43
2018-03-30T01:04:32.472Z,52.83
2018-03-30T01:06:59.936Z,53.33
2018-03-30T01:09:27.413Z,53.60
2018-03-30T01:11:54.915Z,59.10
2018-03-30T01:14:23.246Z,58.83
2018-03-30T01:16:50.713Z,59.73
2018-03-30T01:19:18.215Z,54.80
2018-03-30T01:21:46.470Z,59.03
2018-03-30T01:24:13.992Z,59.27
2018-03-30T01:26:41.478Z,55.27
2018-03-30T01:29:08.974Z,54.47
2018-03-30T01:31:36.538Z,59.23
2018-03-30T01:34:04.812Z,57.97
2018-03-30T01:36:33.053Z,53.83
2018-03-30T01:39:00.523Z,57.93
2018-03-30T01:41:28.765Z,50.33
2018-03-30T01:43:56.268Z,53.70
2018-03-30T01:46:24.559Z,51.43
2018-03-30T01:48:52.067Z,45.07
2018-03-30T01:51:19.670Z,49.97
2018-03-30T01:53:47.176Z,52.77
2018-03-30T01:56:14.710Z,47.67
2018-03-30T01:58:42.903Z,50.67
2018-03-30T02:01:10.388Z,46.13
2018-03-30T02:03:37.915Z,55.67
2018-03-30T02:06:05.418Z,50.47
2018-03-30T02:08:32.955Z,50.43
2018-03-30T02:11:00.463Z,52.17
2018-03-30T02:13:28.730Z,48.90
2018-03-30T02:15:56.999Z,48.77
2018-03-30T02:18:24.487Z,50.77
2018-03-30T02:20:52.004Z,46.57
2018-03-30T02:23:19.611Z,53.80
2018-03-30T02:25:47.075Z,51.37
2018-03-30T02:28:15.031Z,53.17
2018-03-30T02:30:42.531Z,49.53
2018-03-30T02:33:10.040Z,47.30
2018-03-30T02:35:37.569Z,50.03
2018-03-30T02:38:05.380Z,50.90
2018-03-30T02:40:33.349Z,49.67
2018-03-30T02:43:00.818Z,53.00
2018-03-30T02:45:28.291Z,47.40
2018-03-30T02:47:55.833Z,42.60
2018-03-30T02:50:23.411Z,51.00
2018-03-30T02:52:50.878Z,48.13
2018-03-30T02:55:18.350Z,47.77
2018-03-30T02:57:45.905Z,49.03
2018-03-30T03:00:13.448Z,47.80
2018-03-30T03:02:40.963Z,51.07
2018-03-30T03:05:08.444Z,49.17
2018-03-30T03:07:35.953Z,49.40
2018-03-30T03:10:04.224Z,49.73
2018-03-30T03:12:31.706Z,47.63
2018-03-30T03:14:59.956Z,50.70
2018-03-30T03:17:27.415Z,46.30
2018-03-30T03:19:54.931Z,47.60
2018-03-30T03:22:22.478Z,47.50
2018-03-30T03:24:49.962Z,42.83
2018-03-30T03:27:17.448Z,48.53
2018-03-30T03:29:45.012Z,44.80
2018-03-30T03:32:12.483Z,43.23
2018-03-30T03:34:40.757Z,42.67
2018-03-30T03:37:09.015Z,44.77
2018-03-30T03:39:36.507Z,41.03
2018-03-30T03:42:04.012Z,40.83
2018-03-30T03:44:31.512Z,42.33
2018-03-30T03:46:59.777Z,43.43
2018-03-30T03:49:27.245Z,41.67
2018-03-30T03:51:55.569Z,40.97
2018-03-30T03:54:23.088Z,35.77
2018-03-30T03:56:51.398Z,38.03
2018-03-30T03:59:18.901Z,39.17
2018-03-30T04:01:46.406Z,40.60
2018-03-30T04:04:13.904Z,37.83
2018-03-30T04:06:41.439Z,38.27
2018-03-30T04:09:08.990Z,41.03
2018-03-30T04:11:36.468Z,39.40
2018-03-30T04:14:03.943Z,38.97
2018-03-30T04:16:31.475Z,35.83
2018-03-30T04:18:59.709Z,35.43
2018-03-30T04:21:28.944Z,35.67
2018-03-30T04:23:56.463Z,37.40
2018-03-30T04:26:23.944Z,38.27
2018-03-30T04:28:51.428Z,36.93
2018-03-30T04:31:19.041Z,35.10
2018-03-30T04:33:47.364Z,38.10
2018-03-30T04:36:14.880Z,39.97
2018-03-30T04:38:43.114Z,34.53
2018-03-30T04:41:11.067Z,35.10
2018-03-30T04:43:38.640Z,38.23
2018-03-30T04:46:06.100Z,37.13
2018-03-30T04:48:33.609Z,37.10
2018-03-30T04:51:01.855Z,35.63
2018-03-30T04:53:29.380Z,33.90
2018-03-30T04:55:56.846Z,34.27
2018-03-30T04:58:24.356Z,35.20
2018-03-30T05:00:52.583Z,32.73
2018-03-30T05:03:20.083Z,33.33
2018-03-30T05:05:48.325Z,33.70
2018-03-30T05:08:15.805Z,34.03
2018-03-30T05:10:43.281Z,35.73
2018-03-30T05:13:11.521Z,33.70
2018-03-30T05:15:38.982Z,30.40
2018-03-30T05:18:06.545Z,32.13
2018-03-30T05:20:34.065Z,33.77
2018-03-30T05:23:01.623Z,30.77
2018-03-30T05:25:29.085Z,31.33
2018-03-30T05:27:57.204Z,33.23
2018-03-30T05:30:24.709Z,32.47
2018-03-30T05:32:52.196Z,31.30
2018-03-30T05:35:19.715Z,31.17
2018-03-30T05:37:47.247Z,32.67
2018-03-30T05:40:15.492Z,34.30
2018-03-30T05:42:42.996Z,33.07
2018-03-30T05:45:11.275Z,37.13
2018-03-30T05:47:39.509Z,32.50
2018-03-30T05:50:06.983Z,32.27
2018-03-30T05:52:34.465Z,31.83
2018-03-30T05:55:02.843Z,31.53
2018-03-30T05:57:31.063Z,32.27
2018-03-30T05:59:58.569Z,34.83
2018-03-30T06:02:26.075Z,28.20
2018-03-30T06:04:53.558Z,31.87
2018-03-30T06:07:21.060Z,30.57
2018-03-30T06:09:48.578Z,30.27
2018-03-30T06:12:16.082Z,31.27
2018-03-30T06:14:43.581Z,34.47
2018-03-30T06:17:11.075Z,35.27
2018-03-30T06:19:39.403Z,32.27
2018-03-30T06:22:06.960Z,30.47
2018-03-30T06:24:35.081Z,29.27
2018-03-30T06:27:02.707Z,33.50
2018-03-30T06:29:30.209Z,30.97
2018-03-30T06:31:58.473Z,32.10
2018-03-30T06:34:25.969Z,30.57
2018-03-30T06:36:53.467Z,29.83
2018-03-30T06:39:20.977Z,27.50
2018-03-30T06:41:49.276Z,31.03
2018-03-30T06:44:16.756Z,29.57
2018-03-30T06:46:44.266Z,32.23
2018-03-30T06:49:12.490Z,27.70
2018-03-30T06:51:39.964Z,27.63
2018-03-30T06:54:07.462Z,31.10
2018-03-30T06:56:35.171Z,28.30
2018-03-30T06:59:02.656Z,27.50
2018-03-30T07:01:30.139Z,29.77
2018-03-30T07:03:58.379Z,25.80
2018-03-30T07:06:25.848Z,28.30
2018-03-30T07:08:53.368Z,26.53
2018-03-30T07:11:20.851Z,28.63
2018-03-30T07:13:48.350Z,25.23
2018-03-30T07:16:15.853Z,27.03
2018-03-30T07:18:43.407Z,27.83
2018-03-30T07:21:10.916Z,25.00
2018-03-30T07:23:39.208Z,23.50
2018-03-30T07:26:06.821Z,24.33
2018-03-30T07:28:34.343Z,23.50
2018-03-30T07:31:02.558Z,23.90
2018-03-30T07:33:30.032Z,24.23
2018-03-30T07:35:57.546Z,25.23
2018-03-30T07:38:25.049Z,24.00
2018-03-30T07:40:52.599Z,24.07
2018-03-30T07:43:20.067Z,26.63
2018-03-30T07:45:48.004Z,22.73
2018-03-30T07:48:15.487Z,23.30
2018-03-30T07:50:43.044Z,23.63
2018-03-30T07:53:10.530Z,24.80
2018-03-30T07:55:38.824Z,22.17
2018-03-30T07:58:06.344Z,22.40
2018-03-30T08:00:33.827Z,22.67
2018-03-30T08:03:02.080Z,24.47
2018-03-30T08:05:29.588Z,23.60
2018-03-30T08:07:57.103Z,22.17
2018-03-30T08:10:25.379Z,20.93
2018-03-30T08:12:53.625Z,20.00
2018-03-30T08:15:21.124Z,23.37
2018-03-30T08:17:49.376Z,20.93
2018-03-30T08:20:16.849Z,21.70
2018-03-30T08:22:44.336Z,21.10
2018-03-30T08:25:11.796Z,21.03
2018-03-30T08:27:39.285Z,18.70
2018-03-30T08:30:06.779Z,12.50
2018-03-30T08:32:34.266Z,12.83
2018-03-30T08:35:01.753Z,13.83
2018-03-30T08:37:29.367Z,11.00
2018-03-30T08:39:57.700Z,9.57
2018-03-30T08:42:25.286Z,10.60
2018-03-30T08:44:52.871Z,12.33
2018-03-30T08:47:21.166Z,10.93
2018-03-30T08:49:49.500Z,10.37
2018-03-30T08:52:17.041Z,11.53
2018-03-30T08:54:44.518Z,9.37
2018-03-30T08:57:12.169Z,8.80
2018-03-30T08:59:39.833Z,10.70
2018-03-30T09:02:07.417Z,9.10
2018-03-30T09:04:34.929Z,9.57
2018-03-30T09:07:02.519Z,10.07
2018-03-30T09:09:30.789Z,8.70
2018-03-30T09:11:58.350Z,10.20
2018-03-30T09:14:25.893Z,11.27
2018-03-30T09:16:53.355Z,11.43
2018-03-30T09:19:20.879Z,11.57
2018-03-30T09:21:48.360Z,8.67
2018-03-30T09:24:15.867Z,10.60
2018-03-30T09:26:43.484Z,13.90
2018-03-30T09:29:10.986Z,8.70
2018-03-30T09:31:38.657Z,10.33
2018-03-30T09:36:40.175Z,9.33
2018-03-30T09:39:07.700Z,7.90
2018-03-30T09:41:35.268Z,10.10
2018-03-30T09:44:02.848Z,9.70
2018-03-30T09:46:30.335Z,11.73
2018-03-30T09:48:57.893Z,8.93
2018-03-30T09:51:25.378Z,9.40
2018-03-30T09:53:53.620Z,10.53
2018-03-30T09:56:21.361Z,9.07
2018-03-30T09:58:48.863Z,9.87
2018-03-30T10:01:16.610Z,8.37
2018-03-30T10:03:49.012Z,9.83
2018-03-30T10:06:16.744Z,9.13
2018-03-30T10:08:44.254Z,7.50
2018-03-30T10:11:12.603Z,8.47
2018-03-30T10:13:40.091Z,8.83
2018-03-30T10:16:07.614Z,7.63
2018-03-30T10:18:35.109Z,8.07
2018-03-30T10:21:02.626Z,6.83
2018-03-30T10:23:30.142Z,7.77
2018-03-30T10:25:57.643Z,9.43
2018-03-30T10:28:25.138Z,8.20
2018-03-30T10:30:53.387Z,7.43
2018-03-30T10:33:20.960Z,7.47
2018-03-30T10:35:49.204Z,8.53
2018-03-30T10:38:16.735Z,7.63
2018-03-30T10:40:44.199Z,8.37
2018-03-30T10:43:11.711Z,7.93
2018-03-30T10:45:39.963Z,7.27
2018-03-30T10:50:41.581Z,7.77
2018-03-30T10:53:09.102Z,7.53
2018-03-30T10:55:36.583Z,9.07
2018-03-30T10:58:04.843Z,7.07
2018-03-30T11:00:32.359Z,8.57
2018-03-30T11:02:59.833Z,8.43
2018-03-30T11:05:27.386Z,7.00
2018-03-30T11:07:54.881Z,6.60
2018-03-30T11:10:22.411Z,8.70
2018-03-30T11:12:49.918Z,6.43
2018-03-30T11:15:17.458Z,7.77
2018-03-30T11:17:44.978Z,6.30
2018-03-30T11:20:12.532Z,7.33
2018-03-30T11:22:40.201Z,8.43
2018-03-30T11:25:08.166Z,7.40
2018-03-30T11:27:35.664Z,7.63
2018-03-30T11:30:03.172Z,7.90
2018-03-30T11:32:30.674Z,9.33
2018-03-30T11:34:58.287Z,10.80
2018-03-30T11:37:25.800Z,9.93
2018-03-30T11:39:53.346Z,10.77
2018-03-30T11:42:20.872Z,7.60
2018-03-30T11:44:49.070Z,7.33
2018-03-30T11:47:16.552Z,6.80
2018-03-30T11:49:44.080Z,7.67
2018-03-30T11:52:11.612Z,8.53
2018-03-30T11:54:39.097Z,7.53
2018-03-30T11:57:06.588Z,6.93
2018-03-30T11:59:34.079Z,6.40
2018-03-30T12:02:01.587Z,7.57
2018-03-30T12:04:29.079Z,6.30
2018-03-30T12:06:57.331Z,6.57
2018-03-30T12:09:24.844Z,8.20
2018-03-30T12:11:52.325Z,7.20
2018-03-30T12:14:19.844Z,7.90
2018-03-30T12:16:47.338Z,7.73
2018-03-30T12:19:14.804Z,5.87
2018-03-30T12:21:42.360Z,8.73
2018-03-30T12:24:09.860Z,6.67
2018-03-30T12:26:37.361Z,8.23
2018-03-30T12:29:04.818Z,7.90
2018-03-30T12:31:32.377Z,6.37
2018-03-30T12:33:59.872Z,6.57
2018-03-30T12:36:27.379Z,8.47
2018-03-30T12:38:54.893Z,7.60
2018-03-30T12:41:22.405Z,7.63
2018-03-30T12:43:49.958Z,5.77
2018-03-30T12:46:17.457Z,7.50
2018-03-30T12:48:44.944Z,7.40
2018-03-30T12:51:12.416Z,7.73
2018-03-30T12:53:40.672Z,10.43
2018-03-30T12:56:08.148Z,6.40
2018-03-30T12:58:36.403Z,7.23
2018-03-30T13:01:03.900Z,7.90
2018-03-30T13:03:31.390Z,8.17
2018-03-30T13:06:01.075Z,7.47
2018-03-30T13:08:28.608Z,9.93
2018-03-30T13:10:57.599Z,9.27
2018-03-30T13:13:25.985Z,6.70
2018-03-30T13:15:54.244Z,9.00
2018-03-30T13:18:21.848Z,7.93
2018-03-30T13:20:49.376Z,6.83
2018-03-30T13:23:17.664Z,6.00
2018-03-30T13:25:46.007Z,10.10
2018-03-30T13:28:13.517Z,6.90
2018-03-30T13:30:41.011Z,9.80
2018-03-30T13:33:08.515Z,6.30
2018-03-30T13:35:36.780Z,6.80
2018-03-30T13:38:04.249Z,6.67
2018-03-30T13:40:34.906Z,7.00
2018-03-30T13:43:03.156Z,7.07
2018-03-30T13:45:31.422Z,6.90
2018-03-30T13:47:59.671Z,8.97
2018-03-30T13:53:39.390Z,6.20
2018-03-30T13:56:07.748Z,6.23
2018-03-30T13:58:55.663Z,7.40
2018-03-30T14:01:53.131Z,7.83
2018-03-30T14:04:24.109Z,10.50
2018-03-30T14:09:50.033Z,7.33
2018-03-30T14:12:37.841Z,5.77
2018-03-30T14:15:07.047Z,7.60
2018-03-30T14:17:39.506Z,6.03
2018-03-30T14:20:23.403Z,8.50
2018-03-30T14:22:51.724Z,6.80
2018-03-30T14:25:39.976Z,5.97
2018-03-30T14:28:07.476Z,6.73
2018-03-30T14:30:35.704Z,6.87
2018-03-30T14:33:07.886Z,6.10
2018-03-30T14:35:37.210Z,6.40
2018-03-30T14:38:09.416Z,9.97
2018-03-30T14:40:36.905Z,9.07
2018-03-30T14:43:04.394Z,7.13
2018-03-30T14:45:35.055Z,7.70
2018-03-30T14:48:03.301Z,7.70
2018-03-30T14:50:35.980Z,7.97
2018-03-30T14:53:10.220Z,7.03
2018-03-30T14:55:41.204Z,7.63
2018-03-30T14:58:14.700Z,8.80
2018-03-30T15:00:43.958Z,9.60
2018-03-30T15:03:13.088Z,7.60
2018-03-30T15:06:01.910Z,7.53
2018-03-30T15:11:30.600Z,7.00
2018-03-30T15:14:02.250Z,6.20
2018-03-30T15:16:47.457Z,5.73
2018-03-30T15:19:14.957Z,9.77
2018-03-30T15:21:48.196Z,7.90
2018-03-30T15:24:21.903Z,6.97
2018-03-30T15:26:50.906Z,6.10
2018-03-30T15:29:24.155Z,6.00
2018-03-30T15:31:55.253Z,6.40
2018-03-30T15:34:24.632Z,7.53
2018-03-30T15:37:03.840Z,6.13
2018-03-30T15:39:31.352Z,8.40
2018-03-30T15:41:59.473Z,6.13
2018-03-30T15:44:27.836Z,7.37
2018-03-30T15:46:56.095Z,6.67
2018-03-30T15:49:23.672Z,7.87
2018-03-30T15:51:51.985Z,6.23
2018-03-30T15:54:19.762Z,6.73
2018-03-30T15:56:49.815Z,9.63
2018-03-30T15:59:17.317Z,8.77
2018-03-30T16:01:45.632Z,7.00
2018-03-30T16:04:13.208Z,9.57
2018-03-30T16:06:40.706Z,8.73
2018-03-30T16:09:12.861Z,8.33
2018-03-30T16:11:40.333Z,9.00
2018-03-30T16:14:08.563Z,9.33
2018-03-30T16:16:36.105Z,9.50
2018-03-30T16:19:03.094Z,9.03
2018-03-30T16:21:30.067Z,8.33
2018-03-30T16:23:57.842Z,11.47
2018-03-30T16:26:25.581Z,8.20
2018-03-30T16:28:52.581Z,9.07
2018-03-30T16:31:19.601Z,9.93
2018-03-30T16:33:46.577Z,10.20
2018-03-30T16:36:13.614Z,10.63
2018-03-30T16:38:40.659Z,11.07
2018-03-30T16:41:07.672Z,10.47
2018-03-30T16:43:35.432Z,10.83
2018-03-30T16:46:02.392Z,13.17
2018-03-30T16:48:30.190Z,8.77
2018-03-30T16:50:57.192Z,10.67
2018-03-30T16:53:24.214Z,11.30
2018-03-30T16:55:51.983Z,9.63
2018-03-30T16:58:19.016Z,12.17
2018-03-30T17:00:45.997Z,9.47
2018-03-30T17:03:12.978Z,11.00
2018-03-30T17:05:39.991Z,14.07
2018-03-30T17:08:07.099Z,11.67
2018-03-30T17:10:34.600Z,11.93
2018-03-30T17:13:01.636Z,12.30
2018-03-30T17:15:28.652Z,10.67
2018-03-30T17:17:55.628Z,12.57
2018-03-30T17:20:22.609Z,12.17
2018-03-30T17:22:49.599Z,11.10
2018-03-30T17:25:16.607Z,10.27
2018-03-30T17:27:43.592Z,12.97
2018-03-30T17:30:10.589Z,11.60
2018-03-30T17:32:38.351Z,11.20
2018-03-30T17:35:06.113Z,11.60
2018-03-30T17:37:33.870Z,12.73
2018-03-30T17:40:01.691Z,11.50
2018-03-30T17:42:29.466Z,12.63
2018-03-30T17:44:56.457Z,11.60
2018-03-30T17:47:24.277Z,13.67
2018-03-30T17:49:51.253Z,11.33
2018-03-30T17:52:18.349Z,13.53
2018-03-30T17:54:45.372Z,11.63
2018-03-30T17:57:13.127Z,13.40
2018-03-30T17:59:40.903Z,20.37
2018-03-30T18:02:07.907Z,26.30
2018-03-30T18:04:34.938Z,16.90
2018-03-30T18:07:01.928Z,14.30
2018-03-30T18:09:28.908Z,17.00
2018-03-30T18:11:55.915Z,12.20
2018-03-30T18:14:22.959Z,10.73
2018-03-30T18:16:49.939Z,12.30
2018-03-30T18:19:16.991Z,13.37
2018-03-30T18:21:43.980Z,12.50
2018-03-30T18:24:10.996Z,13.43
2018-03-30T18:26:37.979Z,20.93
2018-03-30T18:29:05.091Z,25.33
2018-03-30T18:31:32.088Z,29.37
2018-03-30T18:33:59.097Z,28.77
2018-03-30T18:36:26.080Z,19.27
2018-03-30T18:38:53.097Z,16.43
2018-03-30T18:41:20.082Z,14.50
2018-03-30T18:43:47.102Z,16.57
2018-03-30T18:46:14.320Z,16.03
2018-03-30T18:48:41.347Z,13.50
2018-03-30T18:51:09.760Z,15.70
2018-03-30T18:53:36.739Z,16.17
2018-03-30T18:56:03.752Z,14.67
2018-03-30T18:58:30.797Z,14.10
2018-03-30T19:00:57.810Z,15.00
2018-03-30T19:03:25.609Z,15.73
2018-03-30T19:05:52.603Z,18.10
2018-03-30T19:08:19.617Z,37.20
2018-03-30T19:10:46.623Z,70.83
2018-03-30T19:13:13.613Z,74.83
2018-03-30T19:15:40.656Z,43.97
2018-03-30T19:18:07.645Z,26.63
2018-03-30T19:20:34.631Z,20.40
2018-03-30T19:23:01.611Z,17.87
2018-03-30T19:25:28.626Z,16.27
2018-03-30T19:27:55.635Z,17.10
2018-03-30T19:30:23.426Z,17.83
2018-03-30T19:32:50.435Z,18.73
2018-03-30T19:35:17.530Z,17.17
2018-03-30T19:37:44.532Z,17.53
2018-03-30T19:40:11.525Z,18.07
2018-03-30T19:42:38.544Z,17.30
2018-03-30T19:45:06.278Z,17.43
2018-03-30T19:47:33.291Z,15.23
2018-03-30T19:50:00.281Z,18.23
2018-03-30T19:52:27.364Z,18.40
2018-03-30T19:54:54.396Z,23.47
2018-03-30T19:57:22.165Z,24.10
2018-03-30T19:59:49.934Z,24.10
2018-03-30T20:02:17.752Z,26.30
2018-03-30T20:04:44.769Z,23.53
2018-03-30T20:07:11.771Z,20.47
2018-03-30T20:09:38.744Z,18.60
2018-03-30T20:12:06.517Z,20.23
2018-03-30T20:14:33.511Z,19.37
2018-03-30T20:17:00.539Z,16.77
2018-03-30T20:19:27.540Z,17.53
2018-03-30T20:21:55.354Z,30.00
2018-03-30T20:24:22.363Z,22.20
2018-03-30T20:26:50.128Z,20.83
2018-03-30T20:29:17.195Z,21.13
2018-03-30T20:31:44.192Z,18.93
2018-03-30T20:34:11.176Z,21.30
2018-03-30T20:36:38.171Z,19.67
2018-03-30T20:39:05.234Z,21.50
2018-03-30T20:41:32.233Z,21.33
2018-03-30T20:43:59.227Z,18.67
2018-03-30T20:46:26.222Z,20.37
2018-03-30T20:48:53.225Z,19.97
2018-03-30T20:51:20.256Z,21.37
2018-03-30T20:53:47.349Z,21.40
2018-03-30T20:56:14.345Z,23.63
2018-03-30T20:58:41.340Z,20.20
2018-03-30T21:01:09.154Z,20.33
2018-03-30T21:03:36.150Z,22.13
2018-03-30T21:06:03.906Z,21.17
2018-03-30T21:08:32.636Z,20.40
2018-03-30T21:10:59.686Z,21.63
2018-03-30T21:13:26.767Z,19.83
2018-03-30T21:15:53.804Z,19.70
2018-03-30T21:18:20.805Z,20.00
2018-03-30T21:20:47.947Z,22.00
2018-03-30T21:23:14.951Z,19.47
2018-03-30T21:25:41.943Z,22.63
2018-03-30T21:28:08.949Z,22.77
2018-03-30T21:30:36.001Z,20.40
2018-03-30T21:33:02.985Z,21.60
2018-03-30T21:35:30.742Z,22.27
2018-03-30T21:37:58.498Z,21.53
2018-03-30T21:40:26.258Z,21.73
2018-03-30T21:42:54.030Z,24.53
2018-03-30T21:45:21.841Z,20.47
2018-03-30T21:47:48.836Z,22.00
2018-03-30T21:50:15.838Z,24.13
2018-03-30T21:52:42.833Z,21.90
2018-03-30T21:55:09.927Z,25.93
2018-03-30T21:57:36.930Z,21.80
2018-03-30T22:00:03.937Z,25.53
2018-03-30T22:02:30.973Z,22.30
2018-03-30T22:04:57.961Z,24.63
2018-03-30T22:07:24.973Z,24.40
2018-03-30T22:09:51.986Z,22.53
2018-03-30T22:12:18.973Z,22.60
2018-03-30T22:14:45.977Z,25.27
2018-03-30T22:17:12.982Z,26.10
2018-03-30T22:19:39.981Z,25.43
2018-03-30T22:22:07.000Z,23.90
2018-03-30T22:24:34.840Z,24.90
2018-03-30T22:27:01.830Z,25.80
2018-03-30T22:29:29.729Z,25.77
2018-03-30T22:31:56.720Z,26.67
2018-03-30T22:34:23.727Z,23.23
2018-03-30T22:36:50.737Z,23.20
2018-03-30T22:39:18.538Z,25.27
2018-03-30T22:41:45.542Z,25.30
2018-03-30T22:44:13.385Z,25.47
2018-03-30T22:46:40.369Z,24.23
2018-03-30T22:49:07.375Z,25.63
2018-03-30T22:51:34.356Z,28.80
2018-03-30T22:54:01.421Z,25.53
2018-03-30T22:56:28.446Z,25.57
2018-03-30T22:58:56.209Z,26.47
2018-03-30T23:01:23.971Z,23.50
2018-03-30T23:03:51.732Z,23.93
2018-03-30T23:06:19.501Z,26.13
2018-03-30T23:08:47.268Z,24.90
2018-03-30T23:11:15.077Z,25.27
2018-03-30T23:13:42.068Z,25.10
2018-03-30T23:16:09.889Z,24.77
2018-03-30T23:18:36.877Z,23.47
2018-03-30T23:21:03.904Z,25.43
2018-03-30T23:23:30.981Z,24.30
2018-03-30T23:25:58.791Z,24.03
2018-03-30T23:28:25.793Z,24.83
2018-03-30T23:30:53.585Z,23.90
2018-03-30T23:33:20.596Z,22.90
2018-03-30T23:35:48.250Z,23.57
2018-03-30T23:38:15.337Z,25.00
2018-03-30T23:40:42.327Z,25.73
2018-03-30T23:43:09.307Z,23.83
2018-03-30T23:45:37.063Z,23.20
2018-03-30T23:48:04.065Z,24.47
2018-03-30T23:50:31.059Z,28.37
2018-03-30T23:52:58.107Z,26.10
2018-03-30T23:55:25.889Z,29.13
2018-03-30T23:57:53.648Z,27.00
